Station: EBSP - 22/02/2018 00:21Z (il y a 14 minutes)
EBSP 220020Z AUTO 11003KT 8000 // NCD M04/M13 Q1019
Vent du 110º - 3 kt
Visibilité: 8000 m
Pas de nuages détectés
Température: -04ºC - Point de rosée: -13ºC - QNH: 1019 hPa